createdAt,value
2018-11-26T00:04:59.911Z,108.93
2018-11-26T00:10:14.462Z,137.50
2018-11-26T00:15:16.870Z,142.37
2018-11-26T00:20:19.170Z,154.37
2018-11-26T00:25:21.464Z,154.17
2018-11-26T00:30:23.950Z,156.40
2018-11-26T00:35:26.279Z,158.03
2018-11-26T00:40:28.670Z,199.17
2018-11-26T00:45:31.029Z,206.20
2018-11-26T00:50:33.338Z,185.17
2018-11-26T00:55:35.732Z,182.73
2018-11-26T01:00:38.414Z,190.30
2018-11-26T01:05:42.081Z,138.50
2018-11-26T01:10:44.405Z,160.13
2018-11-26T01:15:46.847Z,142.80
2018-11-26T01:20:49.179Z,146.03
2018-11-26T01:25:51.550Z,149.77
2018-11-26T01:30:53.890Z,169.03
2018-11-26T01:35:56.200Z,171.43
2018-11-26T01:40:58.652Z,167.03
2018-11-26T01:46:00.915Z,181.17
2018-11-26T01:51:03.206Z,136.17
2018-11-26T01:56:06.318Z,150.40
2018-11-26T02:01:08.616Z,168.10
2018-11-26T02:06:10.916Z,167.23
2018-11-26T02:11:13.195Z,176.70
2018-11-26T02:16:15.463Z,167.60
2018-11-26T02:21:17.799Z,157.30
2018-11-26T02:26:20.154Z,134.83
2018-11-26T02:31:22.989Z,129.90
2018-11-26T02:36:28.283Z,133.03
2018-11-26T02:41:30.589Z,130.20
2018-11-26T02:46:32.916Z,132.07
2018-11-26T02:51:35.214Z,125.10
2018-11-26T02:56:37.503Z,141.70
2018-11-26T03:01:40.139Z,110.60
2018-11-26T03:06:43.422Z,101.00
2018-11-26T03:11:45.721Z,102.80
2018-11-26T03:16:48.019Z,109.43
2018-11-26T03:21:50.314Z,119.17
2018-11-26T03:26:52.607Z,121.90
2018-11-26T03:31:55.072Z,102.13
2018-11-26T03:36:57.364Z,105.77
2018-11-26T03:41:59.668Z,111.43
2018-11-26T03:47:01.975Z,92.57
2018-11-26T03:52:04.589Z,98.67
2018-11-26T03:57:06.893Z,87.83
2018-11-26T04:02:09.672Z,100.57
2018-11-26T04:07:13.252Z,89.57
2018-11-26T04:12:15.527Z,75.97
2018-11-26T04:17:17.819Z,75.77
2018-11-26T04:22:20.423Z,65.73
2018-11-26T04:27:24.517Z,58.30
2018-11-26T04:32:27.066Z,59.13
2018-11-26T04:37:29.433Z,59.53
2018-11-26T04:42:31.740Z,65.50
2018-11-26T04:47:34.180Z,74.67
2018-11-26T04:52:36.524Z,68.30
2018-11-26T04:57:42.520Z,74.30
2018-11-26T05:02:41.862Z,74.53
2018-11-26T05:07:44.227Z,84.33
2018-11-26T05:12:46.529Z,69.30
2018-11-26T05:17:48.982Z,85.67
2018-11-26T05:22:54.314Z,74.10
2018-11-26T05:27:56.613Z,85.40
2018-11-26T05:32:59.010Z,83.23
2018-11-26T05:38:01.310Z,82.20
2018-11-26T05:43:03.655Z,82.17
2018-11-26T05:48:06.203Z,85.77
2018-11-26T05:53:08.530Z,67.33
2018-11-26T05:58:10.878Z,56.20
2018-11-26T06:03:13.257Z,60.07
2018-11-26T06:08:15.702Z,66.23
2018-11-26T06:13:17.991Z,73.10
2018-11-26T06:18:20.410Z,56.13
2018-11-26T06:23:22.796Z,51.33
2018-11-26T06:28:25.194Z,50.17
2018-11-26T06:33:27.697Z,48.23
2018-11-26T06:38:30.077Z,52.20
2018-11-26T06:43:32.434Z,52.83
2018-11-26T06:48:34.956Z,61.87
2018-11-26T06:53:37.853Z,76.73
2018-11-26T06:58:40.152Z,96.50
2018-11-26T07:03:42.518Z,112.80
2018-11-26T07:08:44.807Z,117.67
2018-11-26T07:13:47.102Z,123.93
2018-11-26T07:18:49.512Z,139.43
2018-11-26T07:23:51.821Z,134.30
2018-11-26T07:28:54.146Z,129.60
2018-11-26T07:33:56.800Z,123.63
2018-11-26T07:38:59.100Z,123.27
2018-11-26T07:44:01.435Z,143.83
2018-11-26T07:49:03.812Z,123.20
2018-11-26T07:54:06.485Z,144.87
2018-11-26T07:59:08.771Z,140.23
2018-11-26T08:04:11.236Z,159.00
2018-11-26T08:09:13.540Z,164.07
2018-11-26T08:14:16.779Z,147.43
2018-11-26T08:19:19.756Z,130.77
2018-11-26T08:24:22.156Z,126.07
2018-11-26T08:29:24.482Z,130.93
2018-11-26T08:34:26.956Z,150.23
2018-11-26T08:39:35.234Z,136.60
2018-11-26T08:44:40.902Z,135.90
2018-11-26T08:49:43.300Z,199.77
2018-11-26T08:54:45.686Z,167.17
2018-11-26T08:59:47.997Z,178.83
2018-11-26T09:04:56.971Z,221.67
2018-11-26T09:09:59.367Z,183.30
2018-11-26T09:15:01.778Z,197.20
2018-11-26T09:20:06.388Z,126.87
2018-11-26T09:25:10.771Z,160.13
2018-11-26T09:30:14.005Z,153.77
2018-11-26T09:35:16.631Z,172.80
2018-11-26T09:40:18.965Z,205.03
2018-11-26T09:45:21.387Z,174.37
2018-11-26T09:50:23.818Z,168.33
2018-11-26T09:55:26.319Z,221.70
2018-11-26T10:00:28.661Z,302.37
2018-11-26T10:05:31.088Z,246.93
2018-11-26T10:10:33.493Z,223.40
2018-11-26T10:15:35.800Z,259.47
2018-11-26T10:20:38.142Z,263.70
2018-11-26T10:25:40.432Z,290.97
2018-11-26T10:30:42.865Z,241.53
2018-11-26T10:35:45.242Z,273.77
2018-11-26T10:40:47.601Z,359.70
2018-11-26T10:45:50.048Z,300.50
2018-11-26T10:50:52.366Z,320.37
2018-11-26T10:55:54.862Z,404.20
2018-11-26T11:01:01.291Z,399.97
2018-11-26T11:06:03.658Z,386.27
2018-11-26T11:11:06.322Z,442.17
2018-11-26T11:16:08.645Z,388.47
2018-11-26T11:21:11.246Z,385.53
2018-11-26T11:26:13.561Z,467.40
2018-11-26T11:31:15.954Z,401.53
2018-11-26T11:36:18.450Z,389.50
2018-11-26T11:41:20.751Z,402.70
2018-11-26T11:46:23.133Z,341.07
2018-11-26T11:51:25.433Z,296.67
2018-11-26T11:56:27.754Z,296.00
2018-11-26T12:01:30.239Z,394.17
2018-11-26T12:06:32.603Z,413.13
2018-11-26T12:11:34.901Z,214.73
2018-11-26T12:16:37.185Z,168.27
2018-11-26T12:21:44.111Z,213.40
2018-11-26T12:26:46.429Z,176.00
2018-11-26T12:31:48.785Z,152.37
2018-11-26T12:36:51.472Z,134.50
2018-11-26T12:41:53.901Z,124.47
2018-11-26T12:46:56.203Z,134.97
2018-11-26T12:51:59.017Z,110.30
2018-11-26T12:57:01.355Z,132.50
2018-11-26T13:02:03.800Z,121.60
2018-11-26T13:07:06.220Z,148.93
2018-11-26T13:12:08.562Z,172.90
2018-11-26T13:17:10.892Z,179.93
2018-11-26T13:22:13.262Z,149.03
2018-11-26T13:27:15.570Z,164.57
2018-11-26T13:32:17.983Z,181.13
2018-11-26T13:37:20.365Z,158.87
2018-11-26T13:42:22.702Z,141.87
2018-11-26T13:47:25.043Z,138.43
2018-11-26T13:52:27.619Z,143.10
2018-11-26T13:57:29.904Z,150.30
2018-11-26T14:02:32.317Z,120.73
2018-11-26T14:07:34.664Z,125.27
2018-11-26T14:12:36.980Z,123.10
2018-11-26T14:17:39.517Z,87.10
2018-11-26T14:22:41.927Z,77.57
2018-11-26T14:27:44.583Z,63.13
2018-11-26T14:32:46.984Z,72.50
2018-11-26T14:37:53.747Z,63.97
2018-11-26T14:42:56.489Z,61.37
2018-11-26T14:47:58.839Z,61.43
2018-11-26T14:53:04.397Z,67.43
2018-11-26T14:58:06.912Z,64.97
2018-11-26T15:03:09.249Z,67.20
2018-11-26T15:08:11.951Z,67.43
2018-11-26T15:13:14.282Z,59.00
2018-11-26T15:18:16.689Z,67.20
2018-11-26T15:23:18.981Z,71.20
2018-11-26T15:28:21.294Z,74.50
2018-11-26T15:33:23.643Z,66.47
2018-11-26T15:38:26.080Z,76.90
2018-11-26T15:43:28.470Z,77.37
2018-11-26T15:48:30.785Z,77.53
2018-11-26T15:53:33.152Z,73.47
2018-11-26T15:58:35.811Z,75.07
2018-11-26T16:03:38.126Z,76.40
2018-11-26T16:08:40.643Z,81.53
2018-11-26T16:13:42.980Z,73.80
2018-11-26T16:18:45.296Z,80.23
2018-11-26T16:23:47.602Z,80.17
2018-11-26T16:28:50.757Z,75.87
2018-11-26T16:33:54.335Z,82.83
2018-11-26T16:38:57.271Z,79.10
2018-11-26T16:43:59.566Z,79.00
2018-11-26T16:49:02.354Z,71.03
2018-11-26T16:54:04.966Z,73.80
2018-11-26T16:59:07.543Z,78.33
2018-11-26T17:04:09.953Z,72.57
2018-11-26T17:09:12.357Z,88.77
2018-11-26T17:14:14.767Z,78.13
2018-11-26T17:19:17.174Z,70.40
2018-11-26T17:24:19.469Z,76.33
2018-11-26T17:29:21.801Z,72.77
2018-11-26T17:34:24.188Z,72.30
2018-11-26T17:39:26.876Z,64.17
2018-11-26T17:44:29.207Z,65.40
2018-11-26T17:49:31.530Z,62.03
2018-11-26T17:54:34.330Z,60.97
2018-11-26T17:59:37.430Z,63.03
2018-11-26T18:04:41.417Z,57.50
2018-11-26T18:09:44.259Z,60.07
2018-11-26T18:14:46.902Z,57.00
2018-11-26T18:19:49.195Z,57.53
2018-11-26T18:24:51.659Z,57.27
2018-11-26T18:29:54.033Z,59.00
2018-11-26T18:34:58.182Z,61.07
2018-11-26T18:40:00.748Z,60.47
2018-11-26T18:45:03.123Z,59.03
2018-11-26T18:50:08.364Z,60.97
2018-11-26T18:55:11.256Z,60.90
2018-11-26T19:00:15.866Z,64.80
2018-11-26T19:05:18.782Z,60.77
2018-11-26T19:10:23.267Z,58.43
2018-11-26T19:15:32.891Z,62.47
2018-11-26T19:20:35.197Z,68.10
2018-11-26T19:25:37.498Z,72.37
2018-11-26T19:30:39.857Z,69.80
2018-11-26T19:35:42.213Z,65.20
2018-11-26T19:40:44.558Z,56.57
2018-11-26T19:45:47.107Z,62.57
2018-11-26T19:50:49.474Z,55.13
2018-11-26T19:55:51.847Z,56.80
2018-11-26T20:00:54.178Z,59.13
2018-11-26T20:06:01.298Z,56.63
2018-11-26T20:11:03.689Z,53.43
2018-11-26T20:16:08.594Z,51.77
2018-11-26T20:21:11.586Z,55.27
2018-11-26T20:26:13.900Z,55.43
2018-11-26T20:31:16.219Z,53.10
2018-11-26T20:36:18.544Z,53.03
2018-11-26T20:41:20.915Z,57.27
2018-11-26T20:46:23.698Z,49.47
2018-11-26T20:51:26.340Z,52.53
2018-11-26T20:56:28.754Z,54.33
2018-11-26T21:01:31.090Z,60.23
2018-11-26T21:06:33.517Z,59.27
2018-11-26T21:11:36.289Z,61.60
2018-11-26T21:16:38.579Z,57.17
2018-11-26T21:21:40.911Z,58.23
2018-11-26T21:26:43.257Z,54.73
2018-11-26T21:31:45.660Z,56.27
2018-11-26T21:36:48.012Z,57.57
2018-11-26T21:41:50.438Z,60.13
2018-11-26T21:46:53.052Z,57.07
2018-11-26T21:51:55.497Z,54.63
2018-11-26T21:56:57.972Z,60.80
2018-11-26T22:02:01.350Z,53.97
2018-11-26T22:07:04.473Z,56.80
2018-11-26T22:12:06.859Z,60.23
2018-11-26T22:17:09.148Z,55.67
2018-11-26T22:22:11.446Z,56.47
2018-11-26T22:27:13.802Z,47.70
2018-11-26T22:32:16.149Z,53.80
2018-11-26T22:37:18.547Z,46.97
2018-11-26T22:42:20.894Z,48.97
2018-11-26T22:47:23.297Z,49.13
2018-11-26T22:52:25.640Z,50.83
2018-11-26T22:57:28.006Z,49.23
2018-11-26T23:02:30.365Z,50.73
2018-11-26T23:07:32.678Z,47.53
2018-11-26T23:12:35.106Z,50.33
2018-11-26T23:17:37.443Z,51.00
2018-11-26T23:22:39.980Z,52.03
2018-11-26T23:27:42.409Z,49.00
2018-11-26T23:32:48.842Z,52.73
2018-11-26T23:37:51.153Z,49.97
2018-11-26T23:42:53.704Z,45.87
2018-11-26T23:47:56.082Z,45.07
2018-11-26T23:52:58.386Z,48.63
2018-11-26T23:58:00.729Z,52.07
